createdAt,value
2019-06-20T00:01:41.081Z,2.73
2019-06-20T00:06:45.821Z,2.63
2019-06-20T00:11:50.636Z,2.93
2019-06-20T00:16:59.320Z,2.93
2019-06-20T00:22:01.990Z,3.23
2019-06-20T00:27:06.758Z,3.03
2019-06-20T00:32:11.585Z,3.03
2019-06-20T00:37:16.449Z,3.47
2019-06-20T00:42:21.151Z,3.37
2019-06-20T00:47:26.200Z,2.70
2019-06-20T00:52:31.018Z,2.67
2019-06-20T00:57:35.739Z,2.70
2019-06-20T01:02:40.746Z,3.07
2019-06-20T01:07:45.507Z,2.87
2019-06-20T01:12:51.103Z,3.00
2019-06-20T01:17:55.895Z,3.20
2019-06-20T01:23:00.829Z,2.63
2019-06-20T01:28:05.825Z,2.97
2019-06-20T01:33:10.500Z,2.90
2019-06-20T01:38:15.116Z,2.63
2019-06-20T01:43:19.871Z,2.80
2019-06-20T01:48:24.488Z,2.83
2019-06-20T01:53:29.329Z,2.70
2019-06-20T01:58:34.005Z,3.13
2019-06-20T02:03:38.725Z,2.60
2019-06-20T02:08:43.480Z,3.03
2019-06-20T02:13:48.199Z,3.33
2019-06-20T02:18:52.966Z,2.90
2019-06-20T02:23:57.885Z,2.80
2019-06-20T02:29:02.494Z,2.70
2019-06-20T02:34:07.170Z,2.93
2019-06-20T02:39:11.892Z,3.07
2019-06-20T02:44:29.014Z,2.67
2019-06-20T02:49:22.917Z,2.80
2019-06-20T02:54:27.613Z,2.70
2019-06-20T02:59:32.408Z,2.83
2019-06-20T03:04:37.063Z,2.83
2019-06-20T03:09:41.666Z,2.33
2019-06-20T03:14:47.416Z,2.47
2019-06-20T03:19:52.072Z,3.10
2019-06-20T03:24:56.870Z,2.77
2019-06-20T03:30:01.567Z,2.90
2019-06-20T03:35:06.490Z,2.47
2019-06-20T03:40:11.594Z,2.47
2019-06-20T03:45:16.914Z,3.17
2019-06-20T03:50:21.690Z,2.77
2019-06-20T03:55:26.369Z,3.33
2019-06-20T04:00:34.562Z,2.60
2019-06-20T04:05:39.212Z,2.10
2019-06-20T04:10:43.855Z,3.13
2019-06-20T04:15:48.615Z,2.50
2019-06-20T04:20:53.311Z,2.40
2019-06-20T04:25:58.302Z,2.80
2019-06-20T04:31:03.134Z,2.33
2019-06-20T04:36:07.908Z,2.70
2019-06-20T04:41:12.667Z,2.70
2019-06-20T04:46:24.116Z,3.53
2019-06-20T04:51:28.879Z,2.87
2019-06-20T04:56:34.001Z,3.00
2019-06-20T05:01:38.664Z,2.63
2019-06-20T05:06:44.710Z,2.80
2019-06-20T05:11:49.279Z,2.83
2019-06-20T05:16:54.143Z,2.77
2019-06-20T05:21:58.844Z,3.17
2019-06-20T05:27:03.643Z,2.73
2019-06-20T05:32:08.306Z,3.20
2019-06-20T05:37:12.925Z,2.70
2019-06-20T05:42:17.656Z,2.73
2019-06-20T05:47:22.362Z,2.20
2019-06-20T05:52:27.194Z,2.30
2019-06-20T05:57:32.012Z,2.70
2019-06-20T06:02:36.706Z,2.10
2019-06-20T06:07:41.416Z,2.40
2019-06-20T06:12:46.128Z,2.13
2019-06-20T06:17:51.120Z,2.30
2019-06-20T06:22:56.155Z,2.43
2019-06-20T06:28:00.906Z,2.40
2019-06-20T06:33:07.031Z,2.33
2019-06-20T06:38:11.661Z,1.93
2019-06-20T06:43:16.490Z,2.27
2019-06-20T06:48:21.259Z,2.63
2019-06-20T06:53:26.096Z,3.00
2019-06-20T06:58:30.910Z,2.60
2019-06-20T07:03:35.907Z,2.90
2019-06-20T07:08:40.787Z,2.63
2019-06-20T07:13:45.602Z,3.20
2019-06-20T07:18:52.120Z,2.63
2019-06-20T07:23:57.148Z,2.73
2019-06-20T07:29:02.046Z,2.53
2019-06-20T07:34:06.807Z,2.87
2019-06-20T07:39:11.956Z,3.13
2019-06-20T07:44:16.802Z,3.13
2019-06-20T07:49:21.640Z,2.33
2019-06-20T07:54:26.334Z,2.47
2019-06-20T07:59:31.399Z,2.93
2019-06-20T08:04:36.479Z,2.93
2019-06-20T08:09:45.219Z,2.77
2019-06-20T08:14:48.120Z,2.53
2019-06-20T08:19:53.980Z,2.70
2019-06-20T08:24:59.087Z,2.53
2019-06-20T08:30:05.126Z,2.87
2019-06-20T08:35:10.360Z,3.03
2019-06-20T08:40:15.904Z,2.93
2019-06-20T08:45:21.523Z,2.67
2019-06-20T08:50:26.666Z,3.70
2019-06-20T08:55:31.675Z,2.73
2019-06-20T09:00:39.640Z,3.00
2019-06-20T09:05:44.559Z,2.80
2019-06-20T09:10:49.298Z,3.10
2019-06-20T09:15:54.804Z,2.60
2019-06-20T09:21:00.509Z,2.77
2019-06-20T09:26:05.836Z,2.83
2019-06-20T09:31:10.931Z,2.67
2019-06-20T09:36:15.776Z,2.77
2019-06-20T09:41:20.562Z,2.67
2019-06-20T09:46:25.314Z,2.63
2019-06-20T09:51:30.019Z,3.20
2019-06-20T09:56:34.867Z,2.93
2019-06-20T10:01:39.626Z,2.70
2019-06-20T10:06:44.306Z,3.23
2019-06-20T10:11:49.714Z,3.60
2019-06-20T10:16:57.498Z,3.42
2019-06-20T10:22:03.350Z,3.57
2019-06-20T10:27:08.461Z,2.72
2019-06-20T10:32:13.461Z,2.90
2019-06-20T10:37:18.571Z,2.30
2019-06-20T10:42:23.455Z,2.67
2019-06-20T10:47:33.519Z,2.70
2019-06-20T10:52:34.886Z,3.02
2019-06-20T10:57:41.285Z,3.27
2019-06-20T11:02:47.048Z,3.10
2019-06-20T11:07:52.009Z,3.10
2019-06-20T11:12:56.779Z,3.50
2019-06-20T11:18:01.819Z,3.37
2019-06-20T11:23:06.707Z,2.77
2019-06-20T11:28:11.761Z,2.97
2019-06-20T11:33:16.863Z,3.00
2019-06-20T11:38:21.715Z,2.72
2019-06-20T11:43:26.532Z,2.77
2019-06-20T11:48:31.255Z,3.17
2019-06-20T11:53:38.493Z,2.77
2019-06-20T11:58:43.334Z,3.13
2019-06-20T12:03:48.977Z,2.60
2019-06-20T12:08:53.875Z,3.07
2019-06-20T12:13:58.574Z,2.73
2019-06-20T12:19:03.370Z,2.70
2019-06-20T12:24:08.796Z,2.77
2019-06-20T12:29:13.639Z,3.10
2019-06-20T12:34:18.642Z,3.20
2019-06-20T12:39:23.463Z,2.60
2019-06-20T12:44:28.344Z,3.47
2019-06-20T12:49:33.149Z,2.93
2019-06-20T12:54:38.170Z,2.53
2019-06-20T12:59:44.575Z,2.57
2019-06-20T13:04:50.609Z,2.43
2019-06-20T13:09:55.713Z,2.73
2019-06-20T13:15:00.426Z,2.13
2019-06-20T13:20:06.069Z,2.13
2019-06-20T13:25:11.042Z,2.40
2019-06-20T13:30:17.760Z,2.17
2019-06-20T13:35:22.952Z,2.77
2019-06-20T13:40:27.716Z,2.30
2019-06-20T13:45:32.506Z,2.00
2019-06-20T13:50:38.641Z,2.33
2019-06-20T13:55:44.101Z,2.10
2019-06-20T14:00:50.809Z,1.87
2019-06-20T14:05:55.667Z,1.50
2019-06-20T14:11:00.770Z,2.03
2019-06-20T14:16:06.128Z,2.10
2019-06-20T14:21:10.954Z,2.83
2019-06-20T14:26:15.742Z,2.33
2019-06-20T14:31:20.409Z,2.37
2019-06-20T14:36:25.146Z,2.08
2019-06-20T14:41:29.855Z,1.90
2019-06-20T14:46:34.782Z,1.90
2019-06-20T14:51:39.578Z,1.90
2019-06-20T14:56:46.112Z,2.13
2019-06-20T15:01:52.497Z,2.42
2019-06-20T15:06:57.516Z,2.42
2019-06-20T15:12:02.470Z,2.93
2019-06-20T15:17:07.711Z,2.47
2019-06-20T15:22:12.683Z,2.30
2019-06-20T15:27:17.727Z,2.83
2019-06-20T15:32:22.919Z,2.43
2019-06-20T15:37:28.208Z,2.13
2019-06-20T15:42:33.105Z,3.13
2019-06-20T15:47:38.134Z,2.87
2019-06-20T15:52:43.238Z,2.50
2019-06-20T15:57:48.247Z,2.53
2019-06-20T16:03:08.428Z,3.25
2019-06-20T16:07:59.683Z,2.72
2019-06-20T16:13:04.591Z,3.83
2019-06-20T16:18:09.370Z,2.80
2019-06-20T16:23:14.260Z,2.60
2019-06-20T16:28:20.031Z,2.73
2019-06-20T16:33:25.865Z,3.37
2019-06-20T16:38:31.099Z,2.60
2019-06-20T16:43:35.959Z,3.17
2019-06-20T16:48:40.830Z,2.90
2019-06-20T16:53:45.655Z,3.30
2019-06-20T16:58:50.441Z,2.83
2019-06-20T17:03:55.534Z,3.40
2019-06-20T17:09:00.293Z,3.23
2019-06-20T17:14:05.321Z,3.60
2019-06-20T17:19:10.184Z,3.93
2019-06-20T17:24:15.003Z,3.13
2019-06-20T17:29:20.171Z,3.43
2019-06-20T17:34:25.209Z,3.70
2019-06-20T17:39:30.564Z,3.03
2019-06-20T17:44:35.315Z,2.90
2019-06-20T17:49:40.360Z,3.20
2019-06-20T17:54:45.552Z,3.87
2019-06-20T17:59:50.545Z,3.70
2019-06-20T18:04:55.479Z,2.87
2019-06-20T18:10:00.343Z,3.37
2019-06-20T18:15:05.881Z,3.07
2019-06-20T18:20:12.943Z,2.90
2019-06-20T18:25:18.337Z,3.03
2019-06-20T18:30:33.516Z,3.13
2019-06-20T18:35:38.324Z,3.27
2019-06-20T18:40:43.579Z,3.80
2019-06-20T18:45:48.318Z,3.43
2019-06-20T18:50:53.220Z,4.10
2019-06-20T18:55:58.256Z,3.47
2019-06-20T19:01:03.216Z,3.70
2019-06-20T19:06:08.425Z,3.05
2019-06-20T19:11:13.276Z,4.17
2019-06-20T19:16:18.255Z,4.00
2019-06-20T19:21:23.231Z,4.12
2019-06-20T19:26:28.067Z,4.23
2019-06-20T19:31:34.307Z,3.30
2019-06-20T19:36:39.228Z,3.50
2019-06-20T19:41:43.987Z,3.37
2019-06-20T19:46:49.214Z,3.43
2019-06-20T19:51:54.151Z,3.00
2019-06-20T19:56:59.059Z,4.37
2019-06-20T20:02:03.941Z,3.17
2019-06-20T20:07:09.223Z,3.63
2019-06-20T20:12:14.343Z,2.83
2019-06-20T20:17:19.282Z,4.07
2019-06-20T20:22:24.259Z,3.85
2019-06-20T20:27:29.230Z,3.90
2019-06-20T20:32:34.344Z,3.87
2019-06-20T20:37:39.259Z,3.80
2019-06-20T20:42:44.286Z,3.95
2019-06-20T20:47:49.452Z,4.70
2019-06-20T20:52:54.474Z,3.67
2019-06-20T20:57:59.443Z,4.10
2019-06-20T21:03:07.227Z,3.47
2019-06-20T21:08:10.810Z,3.73
2019-06-20T21:13:16.369Z,3.90
2019-06-20T21:18:21.127Z,3.97
2019-06-20T21:23:26.268Z,4.35
2019-06-20T21:28:31.166Z,3.55
2019-06-20T21:33:36.296Z,3.97
2019-06-20T21:38:41.182Z,3.37
2019-06-20T21:43:46.203Z,3.80
2019-06-20T21:48:50.959Z,4.10
2019-06-20T21:53:55.798Z,5.10
2019-06-20T21:59:00.663Z,5.15
2019-06-20T22:04:05.740Z,4.50
2019-06-20T22:09:10.656Z,4.65
2019-06-20T22:14:15.633Z,4.70
2019-06-20T22:19:20.638Z,4.17
2019-06-20T22:24:25.684Z,4.60
2019-06-20T22:29:30.622Z,4.70
2019-06-20T22:34:36.365Z,4.20
2019-06-20T22:39:41.147Z,4.23
2019-06-20T22:44:45.982Z,4.67
2019-06-20T22:49:50.668Z,3.83
2019-06-20T22:54:55.482Z,5.77
2019-06-20T23:00:00.426Z,4.22
2019-06-20T23:05:05.835Z,4.50
2019-06-20T23:10:11.579Z,5.00
2019-06-20T23:15:17.102Z,4.30
2019-06-20T23:20:23.215Z,3.85
2019-06-20T23:25:28.041Z,4.25
2019-06-20T23:30:32.701Z,4.37
2019-06-20T23:35:37.510Z,4.30
2019-06-20T23:40:42.815Z,3.77
2019-06-20T23:45:47.519Z,4.43
2019-06-20T23:50:52.311Z,4.83
2019-06-20T23:55:57.218Z,4.43
